Portada
METAR-TAF:

METAR-TAF

Aeropuertos :

Corinth, Misisipi, Estados Unidos

latitud: 34-54-54N, longitud: 088-36-13W, altitud: 130 m

Observación

El informe se hizo hace 22 minutos, a las 18:15 UTC
Viento 7 kt del oeste
Temperatura 13°C
Humedad 54%
Presión 1016 hPa
Visibilidad: 16.1 km
Cielo despejado

METAR: KCRX 271815Z AUTO 28007KT 10SM CLR 13/04 A3000 RMK AO2

Hora: 12:37 (18:37 UTC)


TAF: falta

Observaciones y pronósticos meteorológicos de más de 4000 aeropuertos (mensajes METAR y TAF).

Los puntos amarillos y rojos representan las estaciones disponibles.

Ponga el ratón en el punto deseado para ver el nombre de la estación.

Haga clic para ver las observaciones y los pronósticos meteorológicos.

Para cambiar el mapa : haga clic en los botones verdes con una cruz de color negro para hacer un zoom, en el botón verde con un guión para alejar o en las flechas verdes para mapas adyacentes.


METAR-TAF: